createdAt,value
2023-05-20T11:01:46.454Z,43.80
2023-05-20T11:03:18.669Z,61.50
2023-05-20T11:04:50.862Z,104.50
2023-05-20T11:06:28.949Z,136.25
2023-05-20T11:08:04.447Z,133.00
2023-05-20T11:09:40.203Z,133.75
2023-05-20T11:11:15.509Z,109.00
2023-05-20T11:12:48.347Z,84.50
2023-05-20T11:14:21.258Z,89.00
2023-05-20T11:15:53.311Z,88.75
2023-05-20T11:17:25.302Z,118.40
2023-05-20T11:18:57.478Z,114.20
2023-05-20T11:20:29.922Z,82.25
2023-05-20T11:22:01.843Z,103.20
2023-05-20T11:23:33.869Z,80.25
2023-05-20T11:25:07.551Z,83.25
2023-05-20T11:26:40.070Z,97.50
2023-05-20T11:28:15.124Z,110.00
2023-05-20T11:29:49.621Z,108.20
2023-05-20T11:31:21.952Z,113.00
2023-05-20T11:32:58.808Z,86.00
2023-05-20T11:34:37.446Z,64.00
2023-05-20T11:36:23.897Z,67.25
2023-05-20T11:38:04.315Z,74.25
2023-05-20T11:39:37.362Z,102.00
2023-05-20T11:41:09.315Z,98.25
2023-05-20T11:42:41.195Z,66.00
2023-05-20T11:44:15.989Z,74.25
2023-05-20T11:45:52.648Z,72.75
2023-05-20T11:47:27.986Z,76.75
2023-05-20T11:48:59.978Z,73.00
2023-05-20T11:50:41.241Z,72.00
2023-05-20T11:52:13.698Z,67.50
2023-05-20T11:53:45.803Z,69.50
2023-05-20T11:55:17.811Z,71.00
2023-05-20T11:56:49.863Z,70.25
2023-05-20T11:58:23.089Z,67.50
2023-05-20T11:59:54.994Z,67.50
2023-05-20T12:01:28.611Z,78.25
2023-05-20T12:03:01.228Z,81.25
2023-05-20T12:04:33.386Z,66.25
2023-05-20T12:06:05.373Z,60.75
2023-05-20T12:07:37.271Z,61.50
2023-05-20T12:09:10.247Z,59.75
2023-05-20T12:10:42.216Z,59.33
2023-05-20T12:12:14.415Z,67.25
2023-05-20T12:13:46.824Z,72.25
2023-05-20T12:15:18.789Z,75.00
2023-05-20T12:16:50.992Z,70.75
2023-05-20T12:18:22.963Z,71.00
2023-05-20T12:19:54.955Z,71.00
2023-05-20T12:21:27.259Z,60.75
2023-05-20T12:23:00.091Z,67.50
2023-05-20T12:24:32.174Z,106.25
2023-05-20T12:26:04.126Z,99.50
2023-05-20T12:27:36.142Z,82.75
2023-05-20T12:29:08.090Z,79.25
2023-05-20T12:30:40.013Z,71.75
2023-05-20T12:32:12.222Z,69.75
2023-05-20T12:33:44.378Z,66.50
2023-05-20T12:35:16.408Z,64.00
2023-05-20T12:36:48.618Z,63.25
2023-05-20T12:38:20.491Z,75.75
2023-05-20T12:39:52.577Z,73.75
2023-05-20T12:41:24.473Z,75.50
2023-05-20T12:42:56.405Z,71.00
2023-05-20T12:44:28.373Z,86.50
2023-05-20T12:46:00.347Z,130.75
2023-05-20T12:47:32.742Z,133.75
2023-05-20T12:49:04.704Z,89.00
2023-05-20T12:50:36.755Z,118.40
2023-05-20T12:52:15.320Z,113.40
2023-05-20T12:53:53.790Z,93.25
2023-05-20T12:55:25.835Z,101.00
2023-05-20T12:56:58.325Z,99.50
2023-05-20T12:58:30.277Z,101.00
2023-05-20T13:00:02.116Z,81.25
2023-05-20T13:01:34.169Z,91.50
2023-05-20T13:03:07.305Z,95.50
2023-05-20T13:04:39.492Z,77.25
2023-05-20T13:06:11.514Z,86.50
2023-05-20T13:07:43.527Z,70.50
2023-05-20T13:09:15.534Z,76.50
2023-05-20T13:10:47.437Z,75.25
2023-05-20T13:12:19.421Z,66.50
2023-05-20T13:13:51.674Z,66.00
2023-05-20T13:15:23.588Z,63.25
2023-05-20T13:16:56.480Z,61.75
2023-05-20T13:18:28.358Z,62.00
2023-05-20T13:20:00.324Z,53.20
2023-05-20T13:21:32.302Z,56.75
2023-05-20T13:23:04.220Z,53.80
2023-05-20T13:24:36.300Z,52.00
2023-05-20T13:26:09.258Z,51.00
2023-05-20T13:27:41.267Z,51.40
2023-05-20T13:29:13.262Z,52.00
2023-05-20T13:30:45.158Z,48.20
2023-05-20T13:32:17.208Z,50.80
2023-05-20T13:33:49.261Z,47.40
2023-05-20T13:35:21.356Z,50.20
2023-05-20T13:36:53.240Z,33.20
2023-05-20T13:38:25.366Z,47.00
2023-05-20T13:39:57.382Z,47.60
2023-05-20T13:41:30.471Z,48.20
2023-05-20T13:43:02.389Z,46.80
2023-05-20T13:44:34.469Z,45.20
2023-05-20T13:46:06.412Z,45.40
2023-05-20T13:47:38.470Z,41.60
2023-05-20T13:49:10.489Z,44.00
2023-05-20T13:50:42.647Z,45.00
2023-05-20T13:52:14.639Z,38.40
2023-05-20T13:53:46.552Z,43.60
2023-05-20T13:55:18.622Z,43.80
2023-05-20T13:56:50.704Z,41.80
2023-05-20T13:58:22.769Z,43.20
2023-05-20T13:59:54.730Z,42.60
2023-05-20T14:01:26.679Z,46.60
2023-05-20T14:03:00.979Z,44.80
2023-05-20T14:04:38.233Z,49.40
2023-05-20T14:06:10.287Z,47.20
2023-05-20T14:07:42.304Z,49.40
2023-05-20T14:09:14.336Z,52.20
2023-05-20T14:10:46.313Z,49.40
2023-05-20T14:12:18.224Z,50.00
2023-05-20T14:13:50.174Z,50.20
2023-05-20T14:15:22.220Z,47.80
2023-05-20T14:16:54.314Z,51.60
2023-05-20T14:18:26.296Z,51.60
2023-05-20T14:19:58.482Z,50.00
2023-05-20T14:21:31.933Z,49.20
2023-05-20T14:23:03.865Z,49.20
2023-05-20T14:24:36.061Z,56.75
2023-05-20T14:26:08.332Z,54.40
2023-05-20T14:27:40.312Z,68.25
2023-05-20T14:29:12.246Z,73.50
2023-05-20T14:30:44.308Z,79.75
2023-05-20T14:32:16.537Z,77.00
2023-05-20T14:33:48.647Z,90.50
2023-05-20T14:35:20.810Z,72.00
2023-05-20T14:36:52.912Z,75.00
2023-05-20T14:38:26.875Z,62.25
2023-05-20T14:39:58.971Z,73.00
2023-05-20T14:41:31.193Z,69.50
2023-05-20T14:43:03.184Z,65.00
2023-05-20T14:44:35.351Z,78.00
2023-05-20T14:46:07.267Z,71.50
2023-05-20T14:47:40.338Z,69.00
2023-05-20T14:49:12.307Z,63.25
2023-05-20T14:50:44.303Z,59.25
2023-05-20T14:52:17.418Z,51.75
2023-05-20T14:53:49.331Z,54.00
2023-05-20T14:55:21.360Z,46.75
2023-05-20T14:56:53.447Z,52.60
2023-05-20T14:58:25.582Z,51.80
2023-05-20T14:59:57.459Z,52.20
2023-05-20T15:01:29.625Z,53.40
2023-05-20T15:03:01.732Z,54.60
2023-05-20T15:04:33.853Z,53.00
2023-05-20T15:06:05.915Z,48.80
2023-05-20T15:07:38.552Z,49.40
2023-05-20T15:09:10.556Z,50.80
2023-05-20T15:10:42.467Z,49.80
2023-05-20T15:12:14.378Z,50.20
2023-05-20T15:13:46.721Z,50.40
2023-05-20T15:15:18.612Z,47.20
2023-05-20T15:16:50.725Z,51.80
2023-05-20T15:18:22.745Z,48.60
2023-05-20T15:19:54.638Z,48.80
2023-05-20T15:21:26.587Z,35.00
2023-05-20T15:22:59.835Z,47.20
2023-05-20T15:24:33.378Z,45.20
2023-05-20T15:26:05.345Z,43.60
2023-05-20T15:27:37.707Z,44.40
2023-05-20T15:29:10.031Z,43.20
2023-05-20T15:30:42.089Z,42.40
2023-05-20T15:32:14.148Z,43.80
2023-05-20T15:33:46.338Z,40.40
2023-05-20T15:35:18.348Z,41.40
2023-05-20T15:36:50.258Z,38.20
2023-05-20T15:38:22.291Z,39.00
2023-05-20T15:39:54.318Z,37.40
2023-05-20T15:41:26.364Z,39.80
2023-05-20T15:42:58.587Z,38.60
2023-05-20T15:44:31.145Z,37.20
2023-05-20T15:46:03.145Z,37.80
2023-05-20T15:47:35.165Z,39.80
2023-05-20T15:49:07.361Z,37.60
2023-05-20T15:50:39.339Z,36.40
2023-05-20T15:52:11.559Z,35.20
2023-05-20T15:53:43.521Z,38.60
2023-05-20T15:55:15.504Z,36.40
2023-05-20T15:56:47.381Z,39.80
2023-05-20T15:58:19.274Z,40.60
2023-05-20T15:59:51.195Z,42.60
2023-05-20T16:01:23.714Z,43.40
2023-05-20T16:02:56.602Z,42.60
2023-05-20T16:04:28.872Z,42.00
2023-05-20T16:06:00.955Z,39.80
2023-05-20T16:07:32.960Z,37.60
2023-05-20T16:09:04.882Z,39.40
2023-05-20T16:10:37.030Z,43.40
2023-05-20T16:12:09.098Z,42.60
2023-05-20T16:13:41.329Z,45.00
2023-05-20T16:15:13.202Z,42.00
2023-05-20T16:16:45.174Z,44.80
2023-05-20T16:18:17.224Z,42.20
2023-05-20T16:19:49.140Z,40.40
2023-05-20T16:21:21.529Z,42.00
2023-05-20T16:22:53.524Z,43.40
2023-05-20T16:24:25.626Z,51.80
2023-05-20T16:25:57.952Z,84.75
2023-05-20T16:27:29.952Z,75.50
2023-05-20T16:29:01.922Z,88.75
2023-05-20T16:30:35.218Z,72.25
2023-05-20T16:32:07.515Z,75.50
2023-05-20T16:33:39.540Z,74.50
2023-05-20T16:35:11.662Z,66.75
2023-05-20T16:36:45.355Z,58.75
2023-05-20T16:38:17.406Z,51.80
2023-05-20T16:39:49.422Z,51.80
2023-05-20T16:41:21.665Z,51.80
2023-05-20T16:42:53.657Z,48.60
2023-05-20T16:44:25.591Z,53.60
2023-05-20T16:45:58.351Z,50.20
2023-05-20T16:47:30.417Z,51.20
2023-05-20T16:49:02.479Z,48.60
2023-05-20T16:50:34.625Z,48.40
2023-05-20T16:52:07.097Z,47.80
2023-05-20T16:53:39.039Z,49.20
2023-05-20T16:55:11.442Z,45.60
2023-05-20T16:56:43.365Z,43.00
2023-05-20T16:58:15.345Z,45.20
2023-05-20T16:59:47.285Z,40.60
2023-05-20T17:01:19.452Z,44.20
2023-05-20T17:02:51.562Z,42.20
2023-05-20T17:04:23.938Z,43.40
2023-05-20T17:05:56.084Z,40.40
2023-05-20T17:07:28.117Z,41.20
2023-05-20T17:09:04.781Z,36.40
2023-05-20T17:10:36.892Z,36.80
2023-05-20T17:12:08.967Z,36.00
2023-05-20T17:13:41.832Z,36.60
2023-05-20T17:15:13.780Z,39.40
2023-05-20T17:16:46.228Z,38.80
2023-05-20T17:18:18.484Z,38.40
2023-05-20T17:19:50.462Z,41.00
2023-05-20T17:21:22.514Z,36.20
2023-05-20T17:22:54.582Z,38.00
2023-05-20T17:24:26.639Z,39.40
2023-05-20T17:25:58.736Z,41.80
2023-05-20T17:27:30.778Z,42.20
2023-05-20T17:29:02.701Z,41.40
2023-05-20T17:30:34.984Z,47.20
2023-05-20T17:32:07.432Z,46.20
2023-05-20T17:33:39.569Z,50.00
2023-05-20T17:35:11.777Z,49.00
2023-05-20T17:36:43.838Z,45.00
2023-05-20T17:38:16.254Z,44.00
2023-05-20T17:39:48.231Z,42.60
2023-05-20T17:41:20.248Z,43.60
2023-05-20T17:42:52.325Z,44.40
2023-05-20T17:44:24.206Z,44.60
2023-05-20T17:45:56.278Z,44.20
2023-05-20T17:47:28.225Z,43.40
2023-05-20T17:49:00.223Z,40.80
2023-05-20T17:50:32.303Z,41.20
2023-05-20T17:52:04.671Z,47.20
2023-05-20T17:53:36.532Z,45.80
2023-05-20T17:55:09.037Z,47.80
2023-05-20T17:56:41.736Z,44.60
2023-05-20T17:58:13.784Z,50.80
2023-05-20T17:59:45.727Z,48.20
2023-05-20T18:01:17.859Z,44.20
2023-05-20T18:02:50.019Z,51.40
2023-05-20T18:04:22.824Z,51.60
2023-05-20T18:05:56.240Z,47.80
2023-05-20T18:07:28.392Z,49.60
2023-05-20T18:09:05.200Z,47.20
2023-05-20T18:10:37.409Z,44.40
2023-05-20T18:12:09.458Z,47.80
2023-05-20T18:13:41.489Z,48.00
2023-05-20T18:15:18.514Z,47.60
2023-05-20T18:16:50.572Z,47.40
2023-05-20T18:18:22.513Z,47.40
2023-05-20T18:19:54.483Z,47.60
2023-05-20T18:21:26.635Z,46.20
2023-05-20T18:22:58.837Z,47.80
2023-05-20T18:24:30.768Z,44.20
2023-05-20T18:26:07.018Z,43.80
2023-05-20T18:27:39.769Z,48.60
2023-05-20T18:29:12.640Z,44.20
2023-05-20T18:30:44.533Z,44.40
2023-05-20T18:32:16.568Z,46.20
2023-05-20T18:33:48.441Z,38.80
2023-05-20T18:35:20.470Z,44.60
2023-05-20T18:36:52.537Z,46.00
2023-05-20T18:38:24.436Z,44.00
2023-05-20T18:39:58.440Z,45.60
2023-05-20T18:41:43.191Z,48.20
2023-05-20T18:43:18.732Z,49.80
2023-05-20T18:44:50.683Z,48.40
2023-05-20T18:46:22.682Z,44.60
2023-05-20T18:47:54.972Z,50.80
2023-05-20T18:49:27.106Z,47.80
2023-05-20T18:50:59.072Z,52.00
2023-05-20T18:52:30.976Z,46.80
2023-05-20T18:54:02.892Z,49.20
2023-05-20T18:55:34.955Z,53.20
2023-05-20T18:57:08.221Z,56.00
2023-05-20T18:58:40.140Z,52.25
2023-05-20T19:00:12.822Z,56.00
2023-05-20T19:01:44.786Z,57.75
2023-05-20T19:03:17.207Z,54.50
2023-05-20T19:04:49.231Z,56.00
2023-05-20T19:06:22.109Z,55.50
2023-05-20T19:07:54.091Z,58.50
2023-05-20T19:09:26.129Z,61.50
2023-05-20T19:10:58.051Z,60.00
2023-05-20T19:12:30.018Z,63.25
2023-05-20T19:14:02.338Z,55.00
2023-05-20T19:15:34.444Z,60.25
2023-05-20T19:17:06.699Z,60.25
2023-05-20T19:18:38.815Z,60.75
2023-05-20T19:20:10.993Z,56.50
2023-05-20T19:21:44.361Z,60.75
2023-05-20T19:23:16.366Z,58.00
2023-05-20T19:24:48.269Z,59.75
2023-05-20T19:26:20.171Z,62.75
2023-05-20T19:27:52.124Z,60.50
2023-05-20T19:29:24.066Z,59.25
2023-05-20T19:30:56.139Z,66.75
2023-05-20T19:32:28.098Z,62.75
2023-05-20T19:34:00.165Z,59.50
2023-05-20T19:35:32.716Z,58.00
2023-05-20T19:37:04.860Z,59.25
2023-05-20T19:38:36.697Z,69.00
2023-05-20T19:40:09.308Z,60.00
2023-05-20T19:41:41.465Z,60.00
2023-05-20T19:43:13.422Z,65.50
2023-05-20T19:44:46.771Z,65.25
2023-05-20T19:46:18.968Z,71.75
2023-05-20T19:47:51.076Z,64.25
2023-05-20T19:49:23.079Z,69.25
2023-05-20T19:50:54.964Z,64.50
2023-05-20T19:52:26.914Z,63.75
2023-05-20T19:53:58.903Z,70.00
2023-05-20T19:55:30.851Z,66.75
2023-05-20T19:57:02.746Z,72.25
2023-05-20T19:58:34.732Z,72.25
2023-05-20T20:00:07.514Z,74.25
2023-05-20T20:01:45.037Z,79.25
2023-05-20T20:03:17.016Z,74.00
2023-05-20T20:04:49.704Z,69.50
2023-05-20T20:06:21.697Z,75.00
2023-05-20T20:07:53.744Z,70.75
2023-05-20T20:09:25.689Z,81.00
2023-05-20T20:10:57.686Z,73.75
2023-05-20T20:12:29.624Z,72.25
2023-05-20T20:14:01.551Z,77.00
2023-05-20T20:15:33.619Z,73.25
2023-05-20T20:17:06.478Z,73.00
2023-05-20T20:18:38.396Z,66.75
2023-05-20T20:20:10.790Z,69.50
2023-05-20T20:21:43.140Z,67.50
2023-05-20T20:23:15.102Z,73.67
2023-05-20T20:24:47.271Z,68.75
2023-05-20T20:26:22.830Z,70.25
2023-05-20T20:27:54.925Z,71.75
2023-05-20T20:29:26.901Z,71.00
2023-05-20T20:30:58.744Z,74.25
2023-05-20T20:32:30.780Z,72.25
2023-05-20T20:34:02.692Z,66.50
2023-05-20T20:35:34.984Z,66.00
2023-05-20T20:37:07.146Z,72.25
2023-05-20T20:38:39.117Z,74.25
2023-05-20T20:40:13.876Z,63.00
2023-05-20T20:41:52.361Z,70.75
2023-05-20T20:43:24.251Z,70.50
2023-05-20T20:44:56.291Z,77.50
2023-05-20T20:46:28.146Z,80.75
2023-05-20T20:48:01.662Z,50.40
2023-05-20T20:49:33.749Z,60.25
2023-05-20T20:51:05.793Z,38.80
2023-05-20T20:52:42.894Z,36.20
2023-05-20T20:54:14.995Z,42.00
2023-05-20T20:55:46.875Z,46.20
2023-05-20T20:57:18.882Z,49.40
2023-05-20T20:58:54.155Z,54.20
2023-05-20T21:00:27.098Z,53.00
2023-05-20T21:01:59.081Z,43.80
2023-05-20T21:03:31.476Z,46.00
2023-05-20T21:05:03.405Z,43.40
2023-05-20T21:06:37.903Z,50.60
2023-05-20T21:08:10.028Z,47.60
2023-05-20T21:09:41.990Z,50.20
2023-05-20T21:11:14.001Z,50.40
2023-05-20T21:12:46.069Z,50.20
2023-05-20T21:14:17.928Z,46.00
2023-05-20T21:15:49.871Z,52.00
2023-05-20T21:17:21.774Z,44.60
2023-05-20T21:18:53.834Z,47.00
2023-05-20T21:20:25.784Z,48.60
2023-05-20T21:21:57.838Z,46.20
2023-05-20T21:23:29.743Z,43.20
2023-05-20T21:25:01.670Z,46.00
2023-05-20T21:26:33.597Z,48.40
2023-05-20T21:28:05.657Z,47.40
2023-05-20T21:29:39.617Z,48.00
2023-05-20T21:31:12.215Z,47.20
2023-05-20T21:32:44.220Z,48.80
2023-05-20T21:34:16.225Z,49.80
2023-05-20T21:35:48.068Z,47.80
2023-05-20T21:37:19.996Z,49.20
2023-05-20T21:38:51.871Z,51.00
2023-05-20T21:40:24.052Z,50.60
2023-05-20T21:41:56.071Z,51.20
2023-05-20T21:43:28.201Z,52.20
2023-05-20T21:45:00.188Z,43.80
2023-05-20T21:46:32.315Z,46.20
2023-05-20T21:48:04.480Z,52.00
2023-05-20T21:49:36.417Z,49.20
2023-05-20T21:51:08.325Z,47.80
2023-05-20T21:52:40.266Z,48.80
2023-05-20T21:54:12.238Z,49.00
2023-05-20T21:55:44.129Z,48.00
2023-05-20T21:57:16.058Z,45.00
2023-05-20T21:58:48.020Z,51.20
2023-05-20T22:00:20.801Z,52.50
2023-05-20T22:01:52.777Z,56.00
2023-05-20T22:03:25.230Z,50.60
2023-05-20T22:04:57.884Z,51.80
2023-05-20T22:06:29.722Z,54.40
2023-05-20T22:08:02.028Z,57.00
2023-05-20T22:09:33.886Z,51.60
2023-05-20T22:11:05.879Z,53.25
2023-05-20T22:12:42.513Z,56.50
2023-05-20T22:14:16.381Z,56.25
2023-05-20T22:15:48.345Z,57.00
2023-05-20T22:17:20.684Z,54.25
2023-05-20T22:18:53.954Z,59.00
2023-05-20T22:20:25.976Z,54.75
2023-05-20T22:21:57.895Z,55.25
2023-05-20T22:23:29.895Z,52.50
2023-05-20T22:25:02.400Z,55.00
2023-05-20T22:26:34.595Z,59.00
2023-05-20T22:28:06.546Z,56.50
2023-05-20T22:29:38.456Z,52.00
2023-05-20T22:31:10.384Z,53.00
2023-05-20T22:32:42.455Z,52.60
2023-05-20T22:34:14.432Z,53.20
